Time;durP1;ratioP1;P1;durP2;ratioP2;P2;SDS_P1;SDS_P2;PMS_P1;PMS_P2;Temp;Humidity;BMP_temperature;BMP_pressure;BME280_temperature;BME280_humidity;BME280_pressure;Samples;Min_cycle;Max_cycle;Signal;HPM_P1;HPM_P2
2022/12/31 00:01:56;;;;;;;14.70;2.28;;;11.60;99.90;;;;;;10522331;28;20439;-26
2022/12/31 00:06:58;;;;;;;16.60;2.78;;;11.80;99.90;;;;;;10521261;28;20047;-29
2022/12/31 00:12:02;;;;;;;28.25;2.80;;;11.80;99.90;;;;;;10541747;28;20091;-27
2022/12/31 00:17:03;;;;;;;17.17;2.10;;;11.80;99.90;;;;;;10529529;28;20136;-27
2022/12/31 00:22:05;;;;;;;21.75;2.55;;;11.80;99.90;;;;;;10517230;28;20090;-28
2022/12/31 00:27:08;;;;;;;22.00;2.83;;;12.10;99.90;;;;;;10533686;28;20132;-29
2022/12/31 00:32:10;;;;;;;21.05;2.38;;;11.80;99.90;;;;;;10525788;28;20131;-26
2022/12/31 00:37:12;;;;;;;13.98;2.28;;;11.80;99.90;;;;;;10527854;28;20572;-27
2022/12/31 00:42:16;;;;;;;13.50;2.43;;;11.90;99.90;;;;;;10529429;28;20158;-32
2022/12/31 00:47:17;;;;;;;11.27;2.20;;;11.80;99.90;;;;;;10536887;28;20116;-27
2022/12/31 00:52:19;;;;;;;24.58;4.80;;;11.90;99.90;;;;;;10542770;28;20532;-28
2022/12/31 00:57:23;;;;;;;13.60;3.30;;;11.60;99.90;;;;;;10529564;28;20091;-28
2022/12/31 01:02:24;;;;;;;13.95;2.30;;;11.70;99.90;;;;;;10529473;28;20139;-29
2022/12/31 01:07:26;;;;;;;14.27;2.85;;;11.90;99.90;;;;;;10527896;28;20086;-27
2022/12/31 01:12:29;;;;;;;12.13;1.80;;;11.90;99.90;;;;;;10533590;28;20511;-28
2022/12/31 01:17:31;;;;;;;9.90;2.35;;;12.20;99.90;;;;;;10529400;28;20353;-25
2022/12/31 01:22:33;;;;;;;7.97;1.52;;;12.10;99.90;;;;;;10526037;28;20075;-27
2022/12/31 01:27:36;;;;;;;2.70;0.90;;;12.10;99.90;;;;;;10534469;28;20468;-27
2022/12/31 01:32:38;;;;;;;10.68;1.55;;;12.20;99.90;;;;;;10528964;28;20040;-28
2022/12/31 01:37:40;;;;;;;9.07;1.67;;;11.80;99.90;;;;;;10519903;28;20066;-28
2022/12/31 01:42:43;;;;;;;5.13;0.90;;;11.70;99.90;;;;;;10524762;28;20080;-27
2022/12/31 01:47:48;;;;;;;7.15;1.20;;;11.90;99.90;;;;;;10529637;28;20048;-26
2022/12/31 01:52:52;;;;;;;8.27;1.63;;;11.70;99.90;;;;;;10521258;28;20071;-27
2022/12/31 01:58:00;;;;;;;14.55;2.05;;;12.20;99.90;;;;;;10523378;28;20139;-27
2022/12/31 02:03:02;;;;;;;7.47;1.33;;;11.90;99.90;;;;;;10527052;28;20048;-27
2022/12/31 02:08:06;;;;;;;11.23;1.00;;;11.60;99.90;;;;;;10513375;28;20186;-27
2022/12/31 02:13:09;;;;;;;18.48;1.70;;;11.50;99.90;;;;;;10515541;28;20179;-29
2022/12/31 02:18:19;;;;;;;12.38;2.45;;;11.60;99.90;;;;;;10513694;28;20083;-26
2022/12/31 02:23:52;;;;;;;12.68;1.10;;;11.20;99.90;;;;;;10523392;28;20355;-27
2022/12/31 02:29:22;;;;;;;15.80;2.13;;;11.40;99.90;;;;;;10526279;28;20087;-31
2022/12/31 02:34:31;;;;;;;8.25;2.42;;;11.60;99.90;;;;;;10524069;28;20044;-27
2022/12/31 02:39:35;;;;;;;9.35;1.20;;;11.60;99.90;;;;;;10506220;28;20076;-28
2022/12/31 02:44:38;;;;;;;5.63;1.10;;;11.50;99.90;;;;;;10517037;28;20134;-31
2022/12/31 02:49:53;;;;;;;9.48;0.98;;;11.30;99.90;;;;;;10520894;28;20137;-28
2022/12/31 02:55:02;;;;;;;10.30;1.42;;;11.70;99.90;;;;;;10529268;28;20085;-28
2022/12/31 03:05:32;;;;;;;8.20;0.90;;;11.20;99.90;;;;;;10527617;28;20048;-27
2022/12/31 03:10:34;;;;;;;7.90;0.80;;;11.20;99.90;;;;;;10521467;28;20080;-27
2022/12/31 03:15:36;;;;;;;4.93;0.82;;;11.20;99.90;;;;;;10523328;28;20058;-28
2022/12/31 03:26:09;;;;;;;8.10;2.35;;;11.70;99.90;;;;;;10517838;28;20049;-28
2022/12/31 03:31:10;;;;;;;11.68;1.15;;;11.10;99.90;;;;;;10528435;28;20055;-28
2022/12/31 03:36:15;;;;;;;4.00;1.08;;;11.50;99.90;;;;;;10540276;28;20056;-27
2022/12/31 03:41:17;;;;;;;2.95;1.10;;;12.40;99.90;;;;;;10531626;28;20125;-27
2022/12/31 03:46:19;;;;;;;4.55;1.23;;;12.40;99.90;;;;;;10526361;28;20049;-26
2022/12/31 03:51:22;;;;;;;6.00;1.30;;;12.90;99.90;;;;;;10528457;28;20497;-28
2022/12/31 03:56:24;;;;;;;10.95;1.48;;;11.90;99.90;;;;;;10526018;28;20083;-28
2022/12/31 04:01:25;;;;;;;6.10;1.52;;;11.70;99.90;;;;;;10518637;28;20685;-26
2022/12/31 04:06:29;;;;;;;5.85;1.10;;;11.90;99.90;;;;;;10518057;28;20132;-26
2022/12/31 04:11:30;;;;;;;5.88;1.00;;;11.60;99.90;;;;;;10527887;28;20397;-26
2022/12/31 04:16:32;;;;;;;5.55;1.55;;;11.50;99.90;;;;;;10533470;28;20087;-26
2022/12/31 04:21:36;;;;;;;2.38;1.52;;;11.90;99.90;;;;;;10525857;28;20076;-33
2022/12/31 04:26:38;;;;;;;5.43;1.70;;;11.80;99.90;;;;;;10523369;28;20139;-25
2022/12/31 04:31:40;;;;;;;4.90;1.20;;;11.80;99.90;;;;;;10522313;28;20040;-28
2022/12/31 04:36:43;;;;;;;2.90;0.40;;;12.20;99.90;;;;;;10524596;28;20080;-26
2022/12/31 04:41:45;;;;;;;1.92;0.90;;;13.60;99.90;;;;;;10524032;28;20494;-29
2022/12/31 04:46:47;;;;;;;0.60;0.57;;;13.60;99.90;;;;;;10529710;28;20215;-28
2022/12/31 04:51:50;;;;;;;2.15;0.98;;;13.30;99.90;;;;;;10530438;28;20044;-27
2022/12/31 04:56:52;;;;;;;2.53;1.75;;;13.30;99.90;;;;;;10530900;28;20079;-27
2022/12/31 05:01:54;;;;;;;2.25;1.20;;;12.50;99.90;;;;;;10527209;28;20487;-26
2022/12/31 05:06:58;;;;;;;2.17;1.42;;;12.00;99.90;;;;;;10519357;28;20048;-27
2022/12/31 05:12:00;;;;;;;2.28;1.25;;;12.20;99.90;;;;;;10525201;28;20098;-27
2022/12/31 05:17:01;;;;;;;2.38;1.58;;;12.00;99.90;;;;;;10525590;28;20197;-27
2022/12/31 05:27:24;;;;;;;2.78;0.88;;;12.20;99.90;;;;;;10527234;28;20121;-27
2022/12/31 05:32:26;;;;;;;0.60;0.50;;;11.90;99.90;;;;;;10530853;28;20079;-27
2022/12/31 05:37:30;;;;;;;1.50;0.50;;;12.30;99.90;;;;;;10532612;28;21025;-29
2022/12/31 05:42:32;;;;;;;0.30;0.30;;;12.20;99.90;;;;;;10518118;28;20120;-27
2022/12/31 05:47:35;;;;;;;0.50;0.40;;;12.10;99.90;;;;;;10528170;28;20067;-28
2022/12/31 05:52:38;;;;;;;0.40;0.40;;;12.10;99.90;;;;;;10528507;28;20565;-26
2022/12/31 05:57:40;;;;;;;5.13;0.55;;;12.20;99.90;;;;;;10519561;28;21031;-27
2022/12/31 06:02:42;;;;;;;0.30;0.30;;;12.30;99.90;;;;;;10522417;28;20113;-27
2022/12/31 06:07:45;;;;;;;1.40;1.05;;;12.60;99.90;;;;;;10520446;28;20531;-28
2022/12/31 06:12:47;;;;;;;0.98;0.98;;;12.40;99.90;;;;;;10527196;28;20543;-27
2022/12/31 06:17:49;;;;;;;2.10;0.88;;;12.70;99.90;;;;;;10520413;28;20083;-27
2022/12/31 06:22:52;;;;;;;0.90;0.52;;;12.70;99.90;;;;;;10528901;28;20121;-29
2022/12/31 06:27:54;;;;;;;2.35;0.40;;;12.60;99.90;;;;;;10528386;28;20552;-29
2022/12/31 06:32:56;;;;;;;2.88;0.60;;;12.80;99.90;;;;;;10522323;28;20140;-27
2022/12/31 06:38:00;;;;;;;1.38;0.30;;;12.80;99.90;;;;;;10529903;28;20048;-27
2022/12/31 06:43:02;;;;;;;3.17;0.50;;;12.80;99.90;;;;;;10523830;28;20059;-25
2022/12/31 06:48:04;;;;;;;2.53;0.30;;;13.00;99.90;;;;;;10525568;28;20093;-26
2022/12/31 06:53:07;;;;;;;0.60;0.32;;;13.10;99.90;;;;;;10507537;28;20041;-27
2022/12/31 06:58:13;;;;;;;3.15;0.57;;;13.10;99.90;;;;;;10516355;28;20052;-27
2022/12/31 07:15:45;;;;;;;5.03;1.13;;;13.20;99.90;;;;;;10498850;27;20121;-28
2022/12/31 07:20:47;;;;;;;1.20;0.55;;;13.20;99.90;;;;;;10519409;28;20469;-27
2022/12/31 07:25:55;;;;;;;4.50;1.30;;;13.30;99.90;;;;;;10510196;28;20087;-27
2022/12/31 07:31:07;;;;;;;3.03;0.50;;;13.30;99.90;;;;;;10514950;28;20534;-27
2022/12/31 07:36:22;;;;;;;4.03;0.77;;;13.20;99.90;;;;;;10506606;28;20049;-30
2022/12/31 07:41:40;;;;;;;6.85;0.70;;;13.10;99.90;;;;;;10520510;28;20079;-27
2022/12/31 07:46:53;;;;;;;7.35;1.13;;;13.10;99.90;;;;;;10506321;28;20135;-27
2022/12/31 07:51:56;;;;;;;8.15;1.17;;;12.90;99.90;;;;;;10516978;28;20056;-29
2022/12/31 07:56:58;;;;;;;15.32;1.48;;;12.60;99.90;;;;;;10517464;28;20103;-29
2022/12/31 08:02:07;;;;;;;14.68;2.63;;;12.60;99.90;;;;;;10518060;28;20139;-25
2022/12/31 08:07:19;;;;;;;15.80;2.70;;;12.80;99.90;;;;;;10516566;28;20047;-27
2022/12/31 08:12:22;;;;;;;12.80;1.73;;;12.60;99.90;;;;;;10512951;28;20428;-27
2022/12/31 08:17:26;;;;;;;10.75;1.50;;;12.40;99.90;;;;;;10531436;28;20139;-27
2022/12/31 08:22:42;;;;;;;18.83;2.67;;;12.70;99.90;;;;;;10520697;28;20044;-28
2022/12/31 08:27:50;;;;;;;19.05;2.83;;;12.70;99.90;;;;;;10494475;28;20469;-28
2022/12/31 08:33:05;;;;;;;16.80;2.28;;;12.50;99.90;;;;;;10486109;28;20181;-27
2022/12/31 08:38:16;;;;;;;12.15;1.85;;;12.90;99.90;;;;;;10489229;28;20041;-28
2022/12/31 08:43:31;;;;;;;6.28;1.40;;;12.90;99.90;;;;;;10494377;28;20140;-28
2022/12/31 08:48:40;;;;;;;8.95;1.65;;;13.40;99.90;;;;;;10491799;28;20098;-25
2022/12/31 08:53:42;;;;;;;14.48;1.88;;;13.50;99.90;;;;;;10486222;28;20087;-27
2022/12/31 08:58:50;;;;;;;10.15;1.45;;;13.40;99.90;;;;;;10486508;28;20072;-30
2022/12/31 09:04:05;;;;;;;11.02;1.75;;;13.40;99.90;;;;;;10473603;28;20098;-28
2022/12/31 09:09:14;;;;;;;11.40;1.17;;;13.50;99.90;;;;;;10484493;28;20076;-28
2022/12/31 09:14:24;;;;;;;8.63;1.48;;;13.50;99.90;;;;;;10474345;28;20060;-27
2022/12/31 09:19:28;;;;;;;12.88;1.45;;;13.40;99.90;;;;;;10468175;28;20091;-29
2022/12/31 09:24:30;;;;;;;17.50;2.67;;;13.40;99.90;;;;;;10473394;28;20072;-27
2022/12/31 09:29:43;;;;;;;10.57;1.40;;;13.20;99.90;;;;;;10497949;28;20075;-27
2022/12/31 09:34:51;;;;;;;8.85;2.45;;;13.40;99.90;;;;;;10486362;28;20561;-29
2022/12/31 09:39:54;;;;;;;9.35;1.20;;;13.90;99.90;;;;;;10479525;28;20068;-28
2022/12/31 09:45:33;;;;;;;10.60;2.28;;;13.30;99.90;;;;;;10490526;28;20040;-30
2022/12/31 09:50:59;;;;;;;8.20;1.60;;;13.30;99.90;;;;;;10488706;28;20044;-27
2022/12/31 09:56:05;;;;;;;8.10;1.42;;;13.30;99.90;;;;;;10481188;28;20053;-29
2022/12/31 10:01:21;;;;;;;5.00;0.82;;;13.30;99.90;;;;;;10482010;28;20132;-30
2022/12/31 10:06:28;;;;;;;4.75;1.13;;;13.50;99.90;;;;;;10476940;28;20113;-29
2022/12/31 10:11:41;;;;;;;5.70;1.10;;;13.60;99.90;;;;;;10481777;28;20060;-27
2022/12/31 10:17:02;;;;;;;8.38;1.38;;;13.70;99.90;;;;;;10488051;28;20094;-27
2022/12/31 10:22:20;;;;;;;10.63;1.77;;;13.70;99.90;;;;;;10489910;28;20135;-29
2022/12/31 10:27:37;;;;;;;5.57;1.45;;;13.70;99.90;;;;;;10485644;28;20049;-31
2022/12/31 10:32:44;;;;;;;4.53;1.13;;;13.90;99.90;;;;;;10482640;28;20048;-27
2022/12/31 10:37:59;;;;;;;3.80;1.20;;;13.70;99.90;;;;;;10486482;28;20179;-27
2022/12/31 10:43:31;;;;;;;7.15;1.90;;;14.00;99.90;;;;;;10468607;28;20076;-26
2022/12/31 10:49:12;;;;;;;8.23;1.52;;;14.10;99.90;;;;;;10485085;28;20072;-27
2022/12/31 10:54:50;;;;;;;3.90;0.98;;;13.90;99.90;;;;;;10444304;28;20119;-27
2022/12/31 11:00:18;;;;;;;8.57;1.92;;;13.70;99.90;;;;;;10485295;28;20123;-27
2022/12/31 11:05:59;;;;;;;11.85;1.90;;;13.30;99.90;;;;;;10474096;28;20047;-27
2022/12/31 11:11:25;;;;;;;27.40;2.63;;;13.20;99.90;;;;;;10432215;28;20052;-27
2022/12/31 11:16:51;;;;;;;10.80;1.77;;;13.20;99.90;;;;;;10468846;28;20048;-27
2022/12/31 11:22:12;;;;;;;17.88;2.25;;;13.40;99.90;;;;;;10477128;28;20711;-28
2022/12/31 11:27:38;;;;;;;10.43;3.67;;;13.10;99.90;;;;;;10469683;28;20048;-32
2022/12/31 11:32:49;;;;;;;16.00;3.10;;;13.20;99.90;;;;;;10482008;28;20561;-29
2022/12/31 11:37:58;;;;;;;12.07;3.63;;;12.90;99.90;;;;;;10482223;28;20115;-27
2022/12/31 11:43:11;;;;;;;14.57;2.95;;;12.80;99.90;;;;;;10464707;28;20067;-27
2022/12/31 11:48:16;;;;;;;;;;;12.80;99.90;;;;;;10467675;28;20057;-26
2022/12/31 11:53:36;;;;;;;21.20;3.15;;;12.80;99.90;;;;;;10470597;28;19927;-28
2022/12/31 11:58:45;;;;;;;14.73;3.53;;;12.70;99.90;;;;;;10480435;28;20045;-32
2022/12/31 12:03:47;;;;;;;15.52;3.53;;;12.70;99.90;;;;;;10497306;28;20504;-31
2022/12/31 12:08:49;;;;;;;12.83;5.53;;;12.40;99.90;;;;;;10484847;28;20159;-28
2022/12/31 12:13:52;;;;;;;7.35;1.92;;;12.90;99.90;;;;;;10483655;28;20065;-29
2022/12/31 12:19:04;;;;;;;4.93;1.25;;;12.90;99.90;;;;;;10475099;28;20132;-27
2022/12/31 12:24:19;;;;;;;8.13;1.80;;;13.30;99.90;;;;;;10478719;28;20076;-26
2022/12/31 12:29:24;;;;;;;7.10;1.55;;;13.40;99.90;;;;;;10490371;28;20084;-26
2022/12/31 12:34:29;;;;;;;12.05;1.80;;;13.40;99.90;;;;;;10480915;28;20092;-26
2022/12/31 12:39:34;;;;;;;9.60;1.73;;;13.60;99.90;;;;;;10487808;28;20110;-30
2022/12/31 12:44:40;;;;;;;10.75;2.15;;;13.70;99.90;;;;;;10481353;28;20103;-26
2022/12/31 12:49:46;;;;;;;7.70;1.95;;;13.70;99.90;;;;;;10472487;28;20151;-29
2022/12/31 12:55:08;;;;;;;4.80;1.45;;;13.90;99.90;;;;;;10478642;28;20143;-26
2022/12/31 13:00:21;;;;;;;10.00;4.78;;;13.80;99.90;;;;;;10474451;28;20226;-26
2022/12/31 13:05:34;;;;;;;6.07;1.55;;;13.80;99.90;;;;;;10471145;28;20068;-26
2022/12/31 13:10:55;;;;;;;6.72;2.40;;;13.80;99.90;;;;;;10475430;28;20084;-25
2022/12/31 13:16:05;;;;;;;3.30;1.10;;;13.90;99.90;;;;;;10466584;28;20146;-24
2022/12/31 13:21:24;;;;;;;13.98;6.68;;;14.00;99.90;;;;;;10481994;28;20080;-31
2022/12/31 13:26:31;;;;;;;5.25;2.10;;;13.80;99.90;;;;;;10475566;28;20124;-26
2022/12/31 13:31:39;;;;;;;4.82;2.03;;;13.80;99.90;;;;;;10480785;28;20444;-27
2022/12/31 13:36:43;;;;;;;5.57;2.53;;;13.90;99.90;;;;;;10481828;28;20053;-25
2022/12/31 13:41:52;;;;;;;7.32;1.52;;;13.70;99.90;;;;;;10474759;28;20106;-28
2022/12/31 13:47:00;;;;;;;4.85;1.95;;;13.70;99.90;;;;;;10476236;28;20079;-27
2022/12/31 13:52:15;;;;;;;8.90;4.07;;;13.70;99.90;;;;;;10471613;28;20048;-26
2022/12/31 13:57:26;;;;;;;7.95;3.13;;;13.90;99.90;;;;;;10473652;28;20071;-24
2022/12/31 14:02:41;;;;;;;5.82;1.83;;;13.80;99.90;;;;;;10474494;28;20473;-27
2022/12/31 14:07:50;;;;;;;10.52;2.35;;;13.80;99.90;;;;;;10465845;28;20485;-27
2022/12/31 14:12:57;;;;;;;11.55;1.85;;;13.80;99.90;;;;;;10460438;28;20093;-27
2022/12/31 14:18:12;;;;;;;9.93;2.78;;;13.60;99.90;;;;;;10460543;28;20049;-26
2022/12/31 14:23:23;;;;;;;12.45;2.25;;;13.50;99.90;;;;;;10467961;28;20080;-25
2022/12/31 14:28:30;;;;;;;17.75;2.45;;;13.50;99.90;;;;;;10476413;28;20123;-26
2022/12/31 14:33:48;;;;;;;14.60;2.17;;;13.70;99.90;;;;;;10468771;28;20065;-33
2022/12/31 14:39:01;;;;;;;6.78;1.75;;;14.00;99.90;;;;;;10478376;28;20057;-27
2022/12/31 14:44:16;;;;;;;14.73;1.85;;;13.70;99.90;;;;;;10470926;28;20083;-27
2022/12/31 14:49:34;;;;;;;12.43;2.28;;;13.60;99.90;;;;;;10467317;28;20045;-28
2022/12/31 14:54:37;;;;;;;16.45;3.38;;;13.50;99.90;;;;;;10473342;28;20083;-27
2022/12/31 14:59:39;;;;;;;17.52;3.13;;;13.40;99.90;;;;;;10467825;28;20044;-25
2022/12/31 15:04:46;;;;;;;12.18;2.58;;;13.30;99.90;;;;;;10481833;28;20079;-26
2022/12/31 15:10:01;;;;;;;8.65;2.38;;;13.30;99.90;;;;;;10485796;28;20048;-29
2022/12/31 15:15:19;;;;;;;11.00;2.70;;;13.60;99.90;;;;;;10463054;28;20176;-26
2022/12/31 15:21:10;;;;;;;13.13;3.10;;;13.70;99.90;;;;;;10476978;28;20045;-27
2022/12/31 15:26:23;;;;;;;10.88;2.60;;;13.70;99.90;;;;;;10447282;28;20053;-27
2022/12/31 15:31:25;;;;;;;14.55;3.75;;;13.90;99.90;;;;;;10461870;28;20153;-27
2022/12/31 15:36:29;;;;;;;13.00;3.37;;;13.70;99.90;;;;;;10471153;28;20607;-27
2022/12/31 15:41:39;;;;;;;18.45;3.75;;;13.80;99.90;;;;;;10488377;28;20514;-26
2022/12/31 15:46:42;;;;;;;15.68;3.83;;;13.60;99.90;;;;;;10496697;28;20057;-28
2022/12/31 15:51:49;;;;;;;15.15;3.08;;;13.70;99.90;;;;;;10487057;28;20912;-27
2022/12/31 15:56:54;;;;;;;8.32;2.33;;;14.00;99.90;;;;;;10473830;28;20044;-27
2022/12/31 16:01:56;;;;;;;10.25;2.60;;;14.90;99.90;;;;;;10482894;28;20635;-27
2022/12/31 16:07:00;;;;;;;17.63;3.83;;;15.10;99.90;;;;;;10474714;28;20080;-27
2022/12/31 16:12:10;;;;;;;21.63;3.35;;;14.10;99.90;;;;;;10476357;28;20099;-27
2022/12/31 16:17:30;;;;;;;12.55;3.22;;;14.10;99.90;;;;;;10478888;28;20052;-26
2022/12/31 16:22:38;;;;;;;8.68;2.50;;;13.80;99.90;;;;;;10473545;28;20491;-25
2022/12/31 16:27:41;;;;;;;17.95;3.13;;;14.20;99.90;;;;;;10485821;28;20040;-27
2022/12/31 16:32:46;;;;;;;11.43;3.45;;;14.70;99.90;;;;;;10480436;28;20138;-24
2022/12/31 16:37:48;;;;;;;12.52;3.13;;;14.70;99.90;;;;;;10485906;28;20052;-26
2022/12/31 16:42:52;;;;;;;15.95;4.07;;;14.90;99.90;;;;;;10483395;28;20044;-26
2022/12/31 16:47:53;;;;;;;9.40;3.25;;;14.50;99.90;;;;;;10478704;28;20052;-27
2022/12/31 16:53:00;;;;;;;15.03;3.70;;;15.30;99.90;;;;;;10473613;28;20041;-27
2022/12/31 16:58:15;;;;;;;7.57;2.67;;;15.60;99.90;;;;;;10485290;28;20076;-28
2022/12/31 17:03:20;;;;;;;10.35;3.30;;;15.60;99.90;;;;;;10474275;28;20148;-28
2022/12/31 17:08:25;;;;;;;12.15;3.85;;;15.40;99.90;;;;;;10482645;28;20048;-29
2022/12/31 17:13:31;;;;;;;32.25;27.45;;;15.50;99.90;;;;;;10468816;28;20087;-29
2022/12/31 17:18:38;;;;;;;14.15;5.18;;;15.10;99.90;;;;;;10472755;28;20508;-29
2022/12/31 17:23:41;;;;;;;18.77;5.53;;;15.20;99.90;;;;;;10477669;28;20075;-26
2022/12/31 17:28:47;;;;;;;13.85;6.03;;;14.90;99.90;;;;;;10475592;28;20470;-29
2022/12/31 17:33:53;;;;;;;10.35;4.30;;;14.70;99.90;;;;;;10476635;28;20052;-26
2022/12/31 17:38:55;;;;;;;19.48;7.03;;;14.70;99.90;;;;;;10470157;28;20075;-27
2022/12/31 17:43:59;;;;;;;17.67;5.53;;;14.50;99.90;;;;;;10486760;28;20145;-27
2022/12/31 17:49:02;;;;;;;10.13;3.70;;;14.50;99.90;;;;;;10473941;28;20040;-26
2022/12/31 17:54:11;;;;;;;18.15;6.10;;;14.60;99.90;;;;;;10484770;28;20056;-28
2022/12/31 17:59:17;;;;;;;25.48;12.25;;;14.50;99.90;;;;;;10478895;28;20059;-28
2022/12/31 18:04:20;;;;;;;12.38;4.50;;;14.50;99.90;;;;;;10467000;28;20134;-26
2022/12/31 18:09:22;;;;;;;10.73;6.13;;;14.50;99.90;;;;;;10478094;28;20412;-25
2022/12/31 18:14:25;;;;;;;14.27;5.87;;;14.60;99.90;;;;;;10473734;28;20098;-26
2022/12/31 18:19:27;;;;;;;12.38;6.07;;;14.60;99.90;;;;;;10483488;28;20128;-28
2022/12/31 18:24:29;;;;;;;11.93;4.87;;;15.60;99.90;;;;;;10474097;28;20036;-26
2022/12/31 18:29:32;;;;;;;10.73;3.92;;;15.60;99.90;;;;;;10471951;28;20174;-26
2022/12/31 18:34:34;;;;;;;14.30;4.80;;;14.90;99.90;;;;;;10477657;28;20049;-27
2022/12/31 18:39:36;;;;;;;17.50;4.10;;;14.60;99.90;;;;;;10476564;28;20055;-27
2022/12/31 18:44:40;;;;;;;9.45;5.28;;;14.50;99.90;;;;;;10473916;28;20088;-28
2022/12/31 18:49:43;;;;;;;9.05;3.70;;;14.80;99.90;;;;;;10471018;28;20132;-30
2022/12/31 18:54:45;;;;;;;13.55;7.05;;;14.60;99.90;;;;;;10481064;28;20045;-27
2022/12/31 18:59:49;;;;;;;30.02;10.73;;;14.40;99.90;;;;;;10470045;28;20131;-28
2022/12/31 19:04:52;;;;;;;19.70;7.13;;;14.20;99.90;;;;;;10476863;28;20083;-25
2022/12/31 19:09:53;;;;;;;17.70;5.70;;;14.30;99.90;;;;;;10467113;28;20445;-26
2022/12/31 19:14:57;;;;;;;13.75;2.78;;;14.50;99.90;;;;;;10468600;28;20431;-27
2022/12/31 19:20:03;;;;;;;22.77;5.82;;;14.00;99.90;;;;;;10475326;28;20047;-29
2022/12/31 19:25:15;;;;;;;23.08;8.70;;;14.10;99.90;;;;;;10483208;28;20151;-26
2022/12/31 19:30:22;;;;;;;14.70;3.63;;;14.10;99.90;;;;;;10479993;28;20137;-29
2022/12/31 19:35:24;;;;;;;25.15;10.48;;;14.10;99.90;;;;;;10467101;28;20139;-27
2022/12/31 19:40:27;;;;;;;;;;;14.20;99.90;;;;;;10462716;28;20045;-26
2022/12/31 19:45:31;;;;;;;15.02;4.50;;;14.10;99.90;;;;;;10468630;28;19968;-27
2022/12/31 19:50:33;;;;;;;10.38;3.80;;;14.30;99.90;;;;;;10465318;28;20424;-29
2022/12/31 19:55:34;;;;;;;12.83;3.73;;;14.20;99.90;;;;;;10479031;28;20048;-26
2022/12/31 20:00:39;;;;;;;15.02;3.60;;;14.20;99.90;;;;;;10482023;28;20072;-27
2022/12/31 20:05:40;;;;;;;18.42;3.90;;;14.50;99.90;;;;;;10472529;28;20489;-26
2022/12/31 20:10:44;;;;;;;8.75;2.42;;;14.30;99.90;;;;;;10480166;28;20441;-25
2022/12/31 20:15:48;;;;;;;19.38;5.38;;;14.30;99.90;;;;;;10481812;28;20064;-25
2022/12/31 20:20:51;;;;;;;15.93;5.25;;;14.20;99.90;;;;;;10480252;28;20076;-26
2022/12/31 20:25:57;;;;;;;7.78;2.67;;;14.40;99.90;;;;;;10484152;28;20057;-27
2022/12/31 20:31:05;;;;;;;11.05;2.85;;;14.20;99.90;;;;;;10474636;28;20073;-26
2022/12/31 20:36:09;;;;;;;13.38;5.13;;;14.50;99.90;;;;;;10478128;28;20053;-28
2022/12/31 20:41:13;;;;;;;13.40;3.78;;;14.40;99.90;;;;;;10479001;28;20087;-26
2022/12/31 20:46:18;;;;;;;12.45;3.58;;;14.20;99.90;;;;;;10478649;28;20474;-25
2022/12/31 20:51:21;;;;;;;27.85;13.73;;;14.50;99.90;;;;;;10484141;28;20048;-26
2022/12/31 20:56:25;;;;;;;15.90;5.25;;;14.60;99.90;;;;;;10500784;28;20553;-28
2022/12/31 21:01:28;;;;;;;21.60;7.00;;;14.60;99.90;;;;;;10478425;28;20141;-28
2022/12/31 21:06:31;;;;;;;24.33;5.60;;;14.70;99.70;;;;;;10483115;28;20139;-26
2022/12/31 21:16:54;;;;;;;16.20;3.17;;;14.60;97.80;;;;;;10479625;28;20726;-28
2022/12/31 21:21:55;;;;;;;13.63;4.93;;;14.50;98.20;;;;;;10470424;28;20055;-27
2022/12/31 21:26:57;;;;;;;21.90;8.38;;;14.60;99.90;;;;;;10482169;28;20136;-26
2022/12/31 21:32:01;;;;;;;17.80;7.57;;;14.60;99.10;;;;;;10473722;28;20057;-26
2022/12/31 21:37:02;;;;;;;18.80;6.65;;;14.70;99.60;;;;;;10478588;28;20055;-26
2022/12/31 21:42:04;;;;;;;17.33;4.90;;;14.40;98.30;;;;;;10474125;28;20044;-27
2022/12/31 21:52:29;;;;;;;15.90;6.47;;;14.60;99.90;;;;;;10471320;28;20056;-28
2022/12/31 21:57:31;;;;;;;14.85;5.82;;;14.40;99.90;;;;;;10486387;28;20056;-27
2022/12/31 22:07:54;;;;;;;21.13;5.30;;;14.20;99.90;;;;;;10470986;28;20496;-26
2022/12/31 22:12:56;;;;;;;22.05;10.00;;;14.10;99.90;;;;;;10474728;28;20057;-26
2022/12/31 22:18:00;;;;;;;17.27;7.63;;;14.30;99.90;;;;;;10479821;28;20061;-27
2022/12/31 22:23:02;;;;;;;21.58;7.65;;;14.30;99.90;;;;;;10485741;28;20408;-27
2022/12/31 22:28:05;;;;;;;28.27;7.90;;;14.20;99.90;;;;;;10469145;28;20049;-27
2022/12/31 22:33:08;;;;;;;15.07;5.68;;;14.10;99.90;;;;;;10485066;28;20116;-26
2022/12/31 22:38:10;;;;;;;16.98;5.80;;;14.30;99.90;;;;;;10484320;28;20048;-26
2022/12/31 22:43:12;;;;;;;17.30;5.93;;;14.10;99.90;;;;;;10468183;28;20114;-26
2022/12/31 22:48:15;;;;;;;18.55;4.55;;;14.90;99.90;;;;;;10458048;28;20133;-25
2022/12/31 22:53:17;;;;;;;16.48;4.35;;;14.20;99.90;;;;;;10475050;28;20527;-26
2022/12/31 22:58:19;;;;;;;20.75;4.80;;;14.20;99.90;;;;;;10488919;28;20221;-26
2022/12/31 23:03:23;;;;;;;99.43;45.80;;;14.10;99.90;;;;;;10475178;28;20098;-24
2022/12/31 23:08:25;;;;;;;25.27;11.18;;;14.10;99.90;;;;;;10466075;28;20087;-27
2022/12/31 23:24:09;;;;;;;34.22;18.00;;;14.20;99.90;;;;;;10471121;28;20482;-29
2022/12/31 23:29:11;;;;;;;38.47;15.35;;;14.20;99.90;;;;;;10476368;28;20052;-27
2022/12/31 23:34:15;;;;;;;35.10;15.43;;;14.30;99.90;;;;;;10475057;28;20048;-28
2022/12/31 23:39:17;;;;;;;30.75;14.70;;;14.20;99.90;;;;;;10473416;28;20136;-28
2022/12/31 23:44:19;;;;;;;31.83;13.15;;;14.20;99.90;;;;;;10491262;28;20404;-26
2022/12/31 23:49:23;;;;;;;32.47;14.47;;;14.30;99.90;;;;;;10488062;28;20068;-27
2022/12/31 23:54:25;;;;;;;36.22;15.35;;;14.10;99.90;;;;;;10476310;28;20059;-27
2022/12/31 23:59:27;;;;;;;34.70;10.85;;;14.10;99.90;;;;;;10487817;28;20088;-27
